NM49 weather

J & M Farms Airport
Willard, New Mexico, United States

Public forecast

Using degrees Fahrenheit for public forecast. Weather courtesy of forecast.io.

Closest aviation weather report (METAR) to J & M Farms Airport

Closest report is Moriarty Municipal Airport, 23.9 nm (44.3 km) N. Retrieved UTC (0 seconds ago):

Closest aviation forecast (TAF) to J & M Farms Airport

Closest forecast is Albuquerque International Sunport, 38.1 nm (70.6 km) NW. Retrieved 2020-02-20 00:40 UTC (4 hours ago):

TAF KABQ 192338Z 2000/2024 20009KT P6SM SCT110 FM200700 07008KT P6SM FEW100 FM200900 07012G22KT P6SM FEW050 FM201300 08023G35KT P6SM SCT050 FM202000 09015G25KT P6SM SCT050